createdAt,value
2022-11-14T00:01:07.938Z,5.78
2022-11-14T00:03:53.270Z,5.66
2022-11-14T00:06:38.706Z,5.64
2022-11-14T00:09:28.394Z,5.80
2022-11-14T00:12:13.795Z,5.84
2022-11-14T00:14:59.175Z,5.61
2022-11-14T00:17:44.718Z,5.70
2022-11-14T00:20:30.240Z,5.48
2022-11-14T00:23:15.996Z,5.51
2022-11-14T00:26:01.389Z,5.43
2022-11-14T00:28:46.762Z,5.47
2022-11-14T00:31:32.400Z,5.32
2022-11-14T00:34:18.636Z,5.29
2022-11-14T00:37:04.096Z,5.51
2022-11-14T00:39:49.366Z,5.30
2022-11-14T00:42:34.988Z,5.39
2022-11-14T00:45:20.664Z,5.13
2022-11-14T00:48:06.165Z,5.35
2022-11-14T00:50:51.864Z,5.19
2022-11-14T00:53:37.315Z,5.27
2022-11-14T00:56:22.922Z,5.28
2022-11-14T00:59:08.329Z,5.33
2022-11-14T01:01:57.688Z,5.34
2022-11-14T01:04:43.536Z,4.85
2022-11-14T01:07:29.176Z,5.20
2022-11-14T01:10:15.102Z,5.02
2022-11-14T01:13:00.770Z,5.17
2022-11-14T01:15:48.756Z,5.01
2022-11-14T01:18:35.346Z,5.25
2022-11-14T01:21:20.853Z,5.25
2022-11-14T01:24:06.823Z,5.12
2022-11-14T01:26:56.141Z,4.96
2022-11-14T01:29:41.716Z,4.80
2022-11-14T01:32:27.842Z,5.14
2022-11-14T01:35:13.605Z,5.14
2022-11-14T01:37:59.176Z,4.80
2022-11-14T01:40:45.660Z,5.05
2022-11-14T01:43:33.981Z,4.89
2022-11-14T01:46:30.715Z,4.89
2022-11-14T01:49:19.013Z,4.92
2022-11-14T01:52:14.026Z,4.89
2022-11-14T01:55:01.215Z,4.72
2022-11-14T01:57:48.367Z,4.49
2022-11-14T02:00:33.878Z,4.33
2022-11-14T02:03:20.081Z,4.67
2022-11-14T02:06:07.585Z,4.76
2022-11-14T02:08:54.064Z,4.62
2022-11-14T02:11:45.322Z,4.76
2022-11-14T02:14:31.546Z,4.78
2022-11-14T02:17:34.487Z,4.54
2022-11-14T02:20:28.752Z,4.64
2022-11-14T02:23:15.002Z,4.64
2022-11-14T02:26:00.549Z,4.43
2022-11-14T02:28:46.499Z,4.63
2022-11-14T02:31:32.106Z,4.58
2022-11-14T02:34:20.140Z,4.69
2022-11-14T02:37:06.436Z,4.24
2022-11-14T02:39:51.823Z,4.23
2022-11-14T02:42:37.719Z,4.02
2022-11-14T02:45:23.193Z,4.27
2022-11-14T02:48:08.970Z,4.36
2022-11-14T02:50:54.818Z,4.34
2022-11-14T02:53:40.043Z,4.35
2022-11-14T02:56:25.558Z,4.18
2022-11-14T02:59:10.980Z,4.45
2022-11-14T03:01:56.487Z,4.28
2022-11-14T03:04:42.233Z,4.43
2022-11-14T03:07:27.986Z,3.89
2022-11-14T03:10:14.138Z,4.03
2022-11-14T03:12:59.710Z,4.39
2022-11-14T03:15:45.952Z,4.12
2022-11-14T03:18:31.695Z,4.39
2022-11-14T03:21:20.904Z,4.16
2022-11-14T03:24:06.866Z,4.35
2022-11-14T03:26:52.825Z,4.12
2022-11-14T03:29:38.500Z,4.24
2022-11-14T03:32:23.854Z,4.34
2022-11-14T03:35:10.167Z,4.49
2022-11-14T03:37:56.747Z,4.02
2022-11-14T03:40:42.870Z,4.33
2022-11-14T03:43:32.354Z,4.32
2022-11-14T03:46:17.659Z,4.18
2022-11-14T03:49:03.192Z,4.16
2022-11-14T03:51:48.661Z,3.99
2022-11-14T03:54:34.008Z,3.88
2022-11-14T03:57:19.491Z,4.19
2022-11-14T04:00:05.644Z,4.30
2022-11-14T04:02:54.546Z,4.09
2022-11-14T04:05:39.799Z,4.18
2022-11-14T04:08:25.377Z,3.80
2022-11-14T04:11:10.835Z,4.16
2022-11-14T04:13:56.275Z,3.80
2022-11-14T04:16:41.545Z,3.87
2022-11-14T04:19:27.061Z,3.93
2022-11-14T04:22:12.726Z,3.80
2022-11-14T04:24:58.210Z,3.91
2022-11-14T04:27:44.355Z,3.67
2022-11-14T04:30:34.586Z,3.96
2022-11-14T04:33:20.678Z,3.72
2022-11-14T04:36:06.345Z,3.82
2022-11-14T04:38:51.403Z,3.71
2022-11-14T04:41:36.793Z,3.73
2022-11-14T04:44:22.069Z,3.84
2022-11-14T04:47:07.614Z,3.85
2022-11-14T04:49:52.984Z,3.71
2022-11-14T04:52:38.680Z,3.56
2022-11-14T04:55:24.459Z,3.86
2022-11-14T04:58:16.098Z,3.15
2022-11-14T05:01:10.804Z,2.58
2022-11-14T05:03:56.925Z,3.83
2022-11-14T05:06:42.595Z,3.66
2022-11-14T05:09:28.792Z,3.44
2022-11-14T05:12:14.493Z,3.63
2022-11-14T05:15:00.295Z,3.52
2022-11-14T05:17:45.969Z,3.29
2022-11-14T05:20:31.564Z,3.51
2022-11-14T05:23:20.704Z,3.47
2022-11-14T05:26:10.987Z,3.45
2022-11-14T05:28:56.426Z,3.32
2022-11-14T05:31:41.742Z,3.19
2022-11-14T05:34:27.498Z,3.54
2022-11-14T05:37:12.736Z,3.40
2022-11-14T05:39:58.344Z,3.33
2022-11-14T05:42:43.710Z,3.49
2022-11-14T05:45:29.193Z,3.37
2022-11-14T05:48:14.676Z,3.60
2022-11-14T05:51:02.184Z,3.56
2022-11-14T05:53:47.726Z,3.44
2022-11-14T05:56:33.275Z,3.54
2022-11-14T05:59:18.695Z,3.37
2022-11-14T06:02:04.236Z,3.51
2022-11-14T06:04:49.533Z,3.35
2022-11-14T06:07:35.145Z,3.43
2022-11-14T06:10:20.832Z,3.56
2022-11-14T06:13:06.329Z,3.78
2022-11-14T06:15:52.045Z,3.87
2022-11-14T06:18:38.104Z,3.65
2022-11-14T06:21:25.294Z,3.66
2022-11-14T06:24:10.708Z,3.82
2022-11-14T06:26:56.092Z,3.72
2022-11-14T06:29:41.865Z,3.98
2022-11-14T06:32:27.209Z,3.76
2022-11-14T06:35:12.752Z,4.04
2022-11-14T06:38:00.128Z,3.95
2022-11-14T06:40:45.259Z,3.98
2022-11-14T06:43:33.360Z,3.96
2022-11-14T06:46:21.108Z,4.10
2022-11-14T06:49:06.623Z,4.34
2022-11-14T06:51:52.352Z,4.33
2022-11-14T06:54:37.899Z,4.30
2022-11-14T06:57:23.398Z,4.63
2022-11-14T07:00:09.589Z,4.73
2022-11-14T07:02:55.300Z,4.68
2022-11-14T07:05:40.645Z,4.78
2022-11-14T07:08:26.329Z,4.97
2022-11-14T07:11:23.050Z,4.90
2022-11-14T07:14:09.441Z,5.15
2022-11-14T07:16:55.010Z,5.22
2022-11-14T07:19:40.498Z,5.08
2022-11-14T07:22:25.878Z,5.44
2022-11-14T07:25:11.237Z,5.55
2022-11-14T07:27:58.199Z,5.69
2022-11-14T07:30:43.733Z,5.82
2022-11-14T07:33:30.293Z,5.91
2022-11-14T07:36:16.780Z,5.96
2022-11-14T07:39:02.523Z,6.27
2022-11-14T07:41:47.892Z,6.41
2022-11-14T07:44:33.318Z,6.52
2022-11-14T07:47:19.092Z,6.75
2022-11-14T07:50:04.996Z,6.98
2022-11-14T07:52:55.484Z,6.83
2022-11-14T07:55:41.305Z,7.25
2022-11-14T07:58:27.012Z,7.50
2022-11-14T08:01:13.774Z,7.68
2022-11-14T08:03:59.479Z,7.84
2022-11-14T08:06:45.051Z,8.00
2022-11-14T08:09:30.505Z,8.19
2022-11-14T08:12:15.854Z,8.33
2022-11-14T08:15:01.347Z,8.21
2022-11-14T08:17:46.719Z,8.59
2022-11-14T08:20:32.338Z,8.86
2022-11-14T08:23:17.852Z,8.82
2022-11-14T08:26:03.433Z,9.17
2022-11-14T08:28:53.860Z,9.17
2022-11-14T08:31:39.369Z,9.36
2022-11-14T08:34:25.633Z,9.55
2022-11-14T08:37:11.127Z,9.63
2022-11-14T08:39:56.553Z,9.75
2022-11-14T08:42:42.201Z,9.44
2022-11-14T08:45:27.614Z,9.91
2022-11-14T08:48:12.739Z,9.93
2022-11-14T08:50:58.676Z,10.03
2022-11-14T08:53:43.959Z,9.99
2022-11-14T08:56:29.829Z,10.37
2022-11-14T08:59:14.919Z,10.45
2022-11-14T09:02:00.731Z,10.44
2022-11-14T09:04:46.464Z,10.57
2022-11-14T09:07:32.323Z,10.77
2022-11-14T09:10:18.123Z,10.88
2022-11-14T09:13:03.791Z,11.02
2022-11-14T09:15:49.334Z,11.18
2022-11-14T09:18:34.747Z,11.28
2022-11-14T09:21:20.193Z,11.33
2022-11-14T09:24:06.086Z,11.53
2022-11-14T09:26:56.684Z,11.51
2022-11-14T09:29:42.464Z,11.78
2022-11-14T09:32:28.043Z,11.89
2022-11-14T09:35:13.521Z,11.96
2022-11-14T09:38:03.673Z,12.08
2022-11-14T09:41:02.606Z,12.32
2022-11-14T09:44:24.726Z,12.24
2022-11-14T09:47:20.775Z,12.43
2022-11-14T09:50:30.705Z,12.42
2022-11-14T09:53:34.443Z,12.86
2022-11-14T09:56:25.278Z,12.99
2022-11-14T09:59:12.427Z,13.11
2022-11-14T10:02:14.205Z,13.22
2022-11-14T10:05:02.872Z,13.35
2022-11-14T10:08:06.184Z,13.48
2022-11-14T10:11:00.231Z,13.40
2022-11-14T10:13:54.912Z,13.70
2022-11-14T10:16:43.264Z,13.80
2022-11-14T10:19:42.852Z,13.89
2022-11-14T10:22:43.777Z,14.03
2022-11-14T10:25:44.169Z,14.10
2022-11-14T10:28:39.593Z,14.19
2022-11-14T10:31:46.441Z,14.29
2022-11-14T10:34:42.506Z,14.39
2022-11-14T10:37:37.889Z,14.51
2022-11-14T10:40:28.179Z,14.50
2022-11-14T10:43:28.537Z,14.55
2022-11-14T10:46:28.640Z,14.79
2022-11-14T10:49:22.563Z,14.65
2022-11-14T10:52:15.024Z,14.91
2022-11-14T10:55:07.322Z,15.00
2022-11-14T10:57:53.149Z,15.05
2022-11-14T11:00:38.776Z,14.95
2022-11-14T11:03:42.017Z,15.16
2022-11-14T11:06:29.304Z,15.25
2022-11-14T11:09:45.422Z,15.33
2022-11-14T11:12:37.462Z,15.39
2022-11-14T11:15:31.845Z,15.41
2022-11-14T11:18:31.524Z,15.48
2022-11-14T11:21:22.331Z,15.33
2022-11-14T11:24:09.320Z,15.59
2022-11-14T11:27:20.470Z,15.61
2022-11-14T11:30:08.467Z,15.65
2022-11-14T11:32:54.180Z,15.56
2022-11-14T11:35:41.704Z,15.60
2022-11-14T11:38:30.161Z,15.79
2022-11-14T11:42:07.285Z,15.87
2022-11-14T11:44:43.681Z,15.70
2022-11-14T11:47:33.449Z,15.91
2022-11-14T11:50:21.421Z,15.98
2022-11-14T11:53:28.265Z,16.03
2022-11-14T11:56:19.661Z,15.86
2022-11-14T11:59:41.149Z,16.05
2022-11-14T12:02:27.674Z,16.08
2022-11-14T12:05:23.786Z,15.90
2022-11-14T12:08:21.085Z,16.15
2022-11-14T12:11:16.131Z,15.98
2022-11-14T12:14:37.105Z,16.22
2022-11-14T12:17:48.630Z,16.23
2022-11-14T12:20:46.155Z,16.27
2022-11-14T12:23:52.565Z,16.24
2022-11-14T12:27:06.497Z,16.27
2022-11-14T12:30:04.922Z,16.03
2022-11-14T12:33:02.816Z,16.32
2022-11-14T12:35:52.582Z,16.25
2022-11-14T12:38:54.404Z,16.43
2022-11-14T12:41:41.362Z,16.32
2022-11-14T12:44:29.699Z,16.47
2022-11-14T12:47:18.307Z,16.21
2022-11-14T12:50:06.492Z,16.44
2022-11-14T12:52:54.275Z,16.40
2022-11-14T12:55:46.100Z,16.48
2022-11-14T12:58:59.024Z,16.45
2022-11-14T13:01:56.400Z,16.42
2022-11-14T13:05:14.939Z,16.39
2022-11-14T13:08:00.170Z,16.33
2022-11-14T13:10:45.489Z,16.34
2022-11-14T13:13:49.994Z,15.95
2022-11-14T13:16:54.142Z,16.21
2022-11-14T13:20:05.651Z,16.04
2022-11-14T13:22:51.574Z,15.61
2022-11-14T13:25:37.045Z,15.62
2022-11-14T13:28:37.780Z,15.55
2022-11-14T13:31:25.456Z,15.35
2022-11-14T13:34:29.283Z,15.27
2022-11-14T13:37:17.636Z,15.07
2022-11-14T13:40:17.165Z,14.78
2022-11-14T13:43:41.353Z,14.51
2022-11-14T13:46:42.272Z,14.07
2022-11-14T13:50:01.529Z,13.96
2022-11-14T13:52:48.906Z,13.76
2022-11-14T13:55:54.702Z,13.34
2022-11-14T13:59:04.587Z,13.30
2022-11-14T14:02:22.297Z,12.91
2022-11-14T14:05:32.541Z,12.63
2022-11-14T14:08:36.956Z,12.39
2022-11-14T14:11:47.416Z,12.28
2022-11-14T14:15:11.511Z,11.93
2022-11-14T14:18:17.936Z,12.07
2022-11-14T14:21:13.800Z,11.92
2022-11-14T14:24:20.688Z,11.88
2022-11-14T14:27:17.459Z,11.60
2022-11-14T14:30:08.291Z,11.69
2022-11-14T14:33:12.577Z,11.65
2022-11-14T14:35:57.962Z,11.49
2022-11-14T14:38:43.844Z,11.37
2022-11-14T14:41:32.608Z,11.15
2022-11-14T14:44:33.800Z,11.24
2022-11-14T14:47:43.073Z,11.12
2022-11-14T14:50:38.605Z,10.94
2022-11-14T14:53:33.440Z,10.97
2022-11-14T14:56:26.869Z,10.99
2022-11-14T14:59:20.035Z,10.73
2022-11-14T15:02:15.612Z,10.78
2022-11-14T15:05:01.996Z,10.81
2022-11-14T15:07:49.627Z,10.69
2022-11-14T15:10:35.325Z,10.42
2022-11-14T15:13:21.457Z,10.55
2022-11-14T15:16:08.165Z,10.22
2022-11-14T15:18:56.291Z,10.25
2022-11-14T15:21:43.463Z,9.82
2022-11-14T15:24:29.251Z,10.07
2022-11-14T15:27:20.001Z,10.05
2022-11-14T15:30:08.401Z,10.02
2022-11-14T15:32:57.165Z,9.91
2022-11-14T15:35:43.086Z,9.89
2022-11-14T15:38:44.858Z,9.62
2022-11-14T15:41:34.031Z,9.61
2022-11-14T15:44:33.732Z,9.58
2022-11-14T15:47:26.035Z,9.73
2022-11-14T15:50:11.573Z,9.65
2022-11-14T15:53:06.771Z,9.68
2022-11-14T15:55:52.311Z,9.48
2022-11-14T15:58:37.895Z,9.51
2022-11-14T16:01:24.398Z,9.59
2022-11-14T16:04:24.971Z,9.37
2022-11-14T16:07:15.693Z,9.38
2022-11-14T16:10:01.094Z,8.81
2022-11-14T16:12:51.973Z,9.24
2022-11-14T16:15:38.238Z,9.13
2022-11-14T16:18:23.860Z,9.00
2022-11-14T16:21:16.694Z,8.88
2022-11-14T16:24:02.285Z,8.74
2022-11-14T16:26:48.626Z,8.58
2022-11-14T16:29:33.832Z,8.50
2022-11-14T16:32:19.452Z,8.51
2022-11-14T16:35:07.906Z,8.44
2022-11-14T16:37:56.717Z,8.39
2022-11-14T16:40:44.936Z,8.51
2022-11-14T16:43:30.908Z,8.30
2022-11-14T16:46:16.549Z,8.33
2022-11-14T16:49:02.701Z,8.29
2022-11-14T16:51:50.616Z,8.27
2022-11-14T16:54:36.665Z,8.06
2022-11-14T16:57:22.518Z,8.27
2022-11-14T17:00:13.448Z,7.95
2022-11-14T17:02:58.922Z,7.88
2022-11-14T17:05:49.194Z,7.91
2022-11-14T17:08:34.605Z,7.81
2022-11-14T17:11:20.140Z,7.61
2022-11-14T17:14:05.951Z,7.68
2022-11-14T17:16:51.540Z,7.67
2022-11-14T17:19:39.037Z,7.48
2022-11-14T17:22:24.788Z,7.56
2022-11-14T17:25:10.756Z,7.48
2022-11-14T17:27:56.560Z,7.37
2022-11-14T17:30:43.184Z,7.40
2022-11-14T17:33:28.990Z,7.20
2022-11-14T17:36:14.591Z,7.32
2022-11-14T17:39:00.169Z,7.22
2022-11-14T17:41:46.262Z,6.99
2022-11-14T17:44:31.838Z,7.16
2022-11-14T17:47:17.373Z,6.89
2022-11-14T17:50:03.234Z,7.02
2022-11-14T17:52:48.960Z,6.77
2022-11-14T17:55:34.465Z,6.97
2022-11-14T17:58:19.818Z,6.49
2022-11-14T18:01:17.269Z,6.85
2022-11-14T18:04:06.053Z,6.72
2022-11-14T18:06:52.299Z,6.64
2022-11-14T18:09:37.917Z,6.70
2022-11-14T18:12:23.425Z,6.63
2022-11-14T18:15:09.180Z,6.49
2022-11-14T18:17:54.550Z,6.27
2022-11-14T18:20:40.037Z,6.27
2022-11-14T18:23:25.944Z,6.31
2022-11-14T18:26:16.184Z,6.33
2022-11-14T18:29:02.444Z,6.43
2022-11-14T18:31:48.488Z,6.43
2022-11-14T18:34:37.034Z,6.20
2022-11-14T18:37:23.331Z,6.44
2022-11-14T18:40:16.253Z,6.29
2022-11-14T18:43:02.283Z,6.51
2022-11-14T18:45:48.225Z,6.46
2022-11-14T18:48:34.092Z,6.46
2022-11-14T18:51:22.044Z,6.51
2022-11-14T18:54:12.626Z,6.37
2022-11-14T18:57:00.671Z,6.54
2022-11-14T18:59:46.256Z,6.61
2022-11-14T19:02:31.684Z,6.31
2022-11-14T19:05:16.901Z,6.54
2022-11-14T19:08:02.194Z,6.34
2022-11-14T19:10:47.645Z,6.30
2022-11-14T19:13:33.885Z,6.20
2022-11-14T19:16:19.636Z,6.32
2022-11-14T19:19:06.608Z,6.09
2022-11-14T19:21:51.930Z,6.34
2022-11-14T19:24:38.554Z,6.11
2022-11-14T19:27:24.025Z,6.04
2022-11-14T19:30:10.208Z,5.93
2022-11-14T19:32:56.058Z,5.83
2022-11-14T19:35:41.485Z,6.10
2022-11-14T19:38:27.166Z,6.09
2022-11-14T19:41:20.388Z,6.00
2022-11-14T19:44:05.851Z,5.93
2022-11-14T19:46:51.622Z,5.88
2022-11-14T19:49:37.347Z,6.02
2022-11-14T19:52:22.853Z,6.02
2022-11-14T19:55:08.781Z,5.73
2022-11-14T19:57:54.441Z,5.97
2022-11-14T20:00:39.793Z,6.20
2022-11-14T20:03:25.190Z,5.79
2022-11-14T20:06:16.289Z,5.88
2022-11-14T20:09:06.471Z,6.01
2022-11-14T20:11:51.864Z,5.99
2022-11-14T20:14:37.363Z,6.13
2022-11-14T20:17:23.034Z,6.14
2022-11-14T20:20:08.904Z,6.07
2022-11-14T20:22:54.230Z,6.12
2022-11-14T20:25:40.488Z,6.02
2022-11-14T20:28:25.568Z,5.99
2022-11-14T20:31:16.497Z,5.95
2022-11-14T20:34:01.827Z,5.75
2022-11-14T20:37:10.019Z,5.52
2022-11-14T20:39:52.845Z,4.98
2022-11-14T20:42:38.291Z,5.41
2022-11-14T20:45:25.079Z,5.54
2022-11-14T20:48:10.627Z,5.65
2022-11-14T20:51:06.711Z,5.55
2022-11-14T20:53:54.684Z,5.60
2022-11-14T20:56:40.110Z,5.69
2022-11-14T20:59:25.655Z,5.57
2022-11-14T21:02:12.909Z,5.73
2022-11-14T21:04:58.786Z,5.41
2022-11-14T21:07:44.308Z,5.64
2022-11-14T21:10:48.073Z,5.66
2022-11-14T21:13:56.655Z,5.30
2022-11-14T21:16:42.191Z,5.42
2022-11-14T21:19:29.376Z,5.48
2022-11-14T21:22:15.226Z,5.32
2022-11-14T21:25:01.945Z,5.47
2022-11-14T21:27:47.498Z,5.22
2022-11-14T21:30:34.636Z,5.31
2022-11-14T21:33:20.330Z,5.02
2022-11-14T21:36:29.647Z,5.30
2022-11-14T21:39:15.293Z,5.26
2022-11-14T21:42:00.816Z,5.06
2022-11-14T21:44:46.360Z,5.16
2022-11-14T21:47:31.344Z,5.33
2022-11-14T21:50:16.927Z,5.09
2022-11-14T21:53:02.810Z,5.11
2022-11-14T21:55:48.530Z,5.04
2022-11-14T21:58:34.012Z,5.14
2022-11-14T22:01:40.394Z,5.07
2022-11-14T22:04:26.192Z,4.88
2022-11-14T22:07:12.114Z,4.94
2022-11-14T22:09:57.735Z,4.54
2022-11-14T22:12:43.087Z,4.92
2022-11-14T22:15:28.436Z,4.79
2022-11-14T22:18:14.936Z,4.74
2022-11-14T22:21:00.767Z,4.78
2022-11-14T22:23:46.689Z,4.78
2022-11-14T22:26:32.106Z,4.45
2022-11-14T22:29:17.393Z,4.51
2022-11-14T22:32:02.699Z,4.65
2022-11-14T22:34:48.218Z,4.84
2022-11-14T22:37:33.793Z,4.54
2022-11-14T22:40:19.258Z,4.67
2022-11-14T22:43:04.795Z,4.53
2022-11-14T22:45:53.815Z,4.62
2022-11-14T22:48:39.430Z,4.71
2022-11-14T22:51:28.512Z,4.49
2022-11-14T22:54:14.231Z,4.29
2022-11-14T22:56:59.837Z,4.34
2022-11-14T22:59:45.354Z,4.15
2022-11-14T23:02:30.698Z,4.44
2022-11-14T23:05:16.537Z,4.44
2022-11-14T23:08:02.515Z,4.44
2022-11-14T23:10:48.421Z,4.40
2022-11-14T23:13:38.946Z,4.26
2022-11-14T23:16:30.584Z,4.50
2022-11-14T23:19:16.310Z,4.55
2022-11-14T23:22:01.933Z,4.58
2022-11-14T23:24:47.354Z,4.47
2022-11-14T23:27:33.554Z,4.55
2022-11-14T23:30:19.075Z,4.60
2022-11-14T23:33:05.165Z,4.60
2022-11-14T23:35:50.774Z,4.45
2022-11-14T23:38:36.253Z,4.57
2022-11-14T23:41:27.502Z,4.56
2022-11-14T23:44:13.290Z,4.28
2022-11-14T23:46:58.699Z,4.33
2022-11-14T23:49:44.345Z,4.60
2022-11-14T23:52:30.265Z,4.56
2022-11-14T23:55:16.187Z,4.14
2022-11-14T23:58:01.995Z,4.44
